createdAt,value
2018-09-13T00:01:27.012Z,20.70
2018-09-13T00:03:55.475Z,20.70
2018-09-13T00:06:24.113Z,20.70
2018-09-13T00:08:52.590Z,20.70
2018-09-13T00:11:21.056Z,20.70
2018-09-13T00:13:49.659Z,20.70
2018-09-13T00:16:18.240Z,20.70
2018-09-13T00:18:46.721Z,20.70
2018-09-13T00:21:15.304Z,20.70
2018-09-13T00:23:43.736Z,20.70
2018-09-13T00:26:12.316Z,20.70
2018-09-13T00:28:41.181Z,20.70
2018-09-13T00:31:09.684Z,20.70
2018-09-13T00:33:38.728Z,20.70
2018-09-13T00:36:07.165Z,20.70
2018-09-13T00:38:35.571Z,20.70
2018-09-13T00:41:04.008Z,20.70
2018-09-13T00:43:32.433Z,20.70
2018-09-13T00:46:00.917Z,20.70
2018-09-13T00:48:29.421Z,20.70
2018-09-13T00:50:57.955Z,20.70
2018-09-13T00:53:26.514Z,20.70
2018-09-13T00:55:54.929Z,20.70
2018-09-13T00:58:23.382Z,20.70
2018-09-13T01:00:51.874Z,20.70
2018-09-13T01:03:20.360Z,20.70
2018-09-13T01:05:48.780Z,20.70
2018-09-13T01:08:17.470Z,20.70
2018-09-13T01:10:45.942Z,20.70
2018-09-13T01:13:14.336Z,20.70
2018-09-13T01:15:42.899Z,20.70
2018-09-13T01:18:11.454Z,20.70
2018-09-13T01:20:40.243Z,20.70
2018-09-13T01:23:11.594Z,20.70
2018-09-13T01:25:41.402Z,20.70
2018-09-13T01:28:09.936Z,20.70
2018-09-13T01:30:38.529Z,20.70
2018-09-13T01:33:07.159Z,20.70
2018-09-13T01:35:35.617Z,20.70
2018-09-13T01:38:04.178Z,20.70
2018-09-13T01:40:33.230Z,20.70
2018-09-13T01:43:01.810Z,20.70
2018-09-13T01:45:30.233Z,20.70
2018-09-13T01:47:58.670Z,20.60
2018-09-13T01:50:27.081Z,20.70
2018-09-13T01:52:55.544Z,20.70
2018-09-13T01:55:23.945Z,20.60
2018-09-13T01:57:52.728Z,20.60
2018-09-13T02:00:21.268Z,20.70
2018-09-13T02:02:49.872Z,20.60
2018-09-13T02:05:18.360Z,20.60
2018-09-13T02:07:46.913Z,20.60
2018-09-13T02:10:15.327Z,20.60
2018-09-13T02:12:43.950Z,20.60
2018-09-13T02:15:12.415Z,20.60
2018-09-13T02:17:40.941Z,20.60
2018-09-13T02:20:09.419Z,20.70
2018-09-13T02:22:38.040Z,20.70
2018-09-13T02:25:06.600Z,20.60
2018-09-13T02:27:35.036Z,20.70
2018-09-13T02:30:03.756Z,20.60
2018-09-13T02:32:32.271Z,20.70
2018-09-13T02:35:00.824Z,20.70
2018-09-13T02:37:29.322Z,20.70
2018-09-13T02:39:57.786Z,20.60
2018-09-13T02:42:26.232Z,20.60
2018-09-13T02:44:54.706Z,20.60
2018-09-13T02:47:23.311Z,20.60
2018-09-13T02:49:51.908Z,20.60
2018-09-13T02:52:20.354Z,20.60
2018-09-13T02:54:48.795Z,20.60
2018-09-13T02:57:17.244Z,20.60
2018-09-13T02:59:45.691Z,20.60
2018-09-13T03:02:14.292Z,20.60
2018-09-13T03:04:42.726Z,20.60
2018-09-13T03:07:11.163Z,20.70
2018-09-13T03:09:39.783Z,20.60
2018-09-13T03:12:08.167Z,20.70
2018-09-13T03:14:36.624Z,20.60
2018-09-13T03:17:05.032Z,20.60
2018-09-13T03:19:33.571Z,20.60
2018-09-13T03:22:01.997Z,20.60
2018-09-13T03:24:30.480Z,20.60
2018-09-13T03:26:59.093Z,20.60
2018-09-13T03:29:27.605Z,20.60
2018-09-13T03:31:56.138Z,20.60
2018-09-13T03:34:24.808Z,20.60
2018-09-13T03:36:53.225Z,20.60
2018-09-13T03:39:21.721Z,20.60
2018-09-13T03:41:50.234Z,20.60
2018-09-13T03:44:18.697Z,20.60
2018-09-13T03:46:47.124Z,20.60
2018-09-13T03:49:15.598Z,20.60
2018-09-13T03:51:44.059Z,20.60
2018-09-13T03:54:12.504Z,20.60
2018-09-13T03:56:41.020Z,20.60
2018-09-13T03:59:09.917Z,20.60
2018-09-13T04:01:38.837Z,20.60
2018-09-13T04:04:07.437Z,20.60
2018-09-13T04:06:35.929Z,20.60
2018-09-13T04:09:06.674Z,20.60
2018-09-13T04:11:35.235Z,20.60
2018-09-13T04:14:03.706Z,20.60
2018-09-13T04:16:32.157Z,20.60
2018-09-13T04:19:00.593Z,20.60
2018-09-13T04:21:29.428Z,20.60
2018-09-13T04:23:57.881Z,20.60
2018-09-13T04:26:26.307Z,20.60
2018-09-13T04:28:54.795Z,20.60
2018-09-13T04:31:23.551Z,20.60
2018-09-13T04:33:51.963Z,20.60
2018-09-13T04:36:20.401Z,20.60
2018-09-13T04:38:48.867Z,20.60
2018-09-13T04:41:24.217Z,20.60
2018-09-13T04:43:52.807Z,20.60
2018-09-13T04:46:21.249Z,20.60
2018-09-13T04:48:49.704Z,20.60
2018-09-13T04:51:18.190Z,20.60
2018-09-13T04:53:46.802Z,20.60
2018-09-13T04:56:15.218Z,20.60
2018-09-13T04:58:43.695Z,20.60
2018-09-13T05:01:12.140Z,20.60
2018-09-13T05:03:40.601Z,20.60
2018-09-13T05:06:08.998Z,20.60
2018-09-13T05:08:37.431Z,20.60
2018-09-13T05:11:05.849Z,20.60
2018-09-13T05:13:34.267Z,20.60
2018-09-13T05:16:02.888Z,20.60
2018-09-13T05:18:31.366Z,20.60
2018-09-13T05:20:59.826Z,20.60
2018-09-13T05:23:28.285Z,20.60
2018-09-13T05:25:56.721Z,20.60
2018-09-13T05:28:25.115Z,20.60
2018-09-13T05:30:53.742Z,20.60
2018-09-13T05:33:22.212Z,20.60
2018-09-13T05:35:50.734Z,20.60
2018-09-13T05:38:19.157Z,20.60
2018-09-13T05:40:47.596Z,20.60
2018-09-13T05:43:16.112Z,20.60
2018-09-13T05:45:44.556Z,20.60
2018-09-13T05:48:13.154Z,20.60
2018-09-13T05:50:42.629Z,20.60
2018-09-13T05:53:11.123Z,20.60
2018-09-13T05:55:39.818Z,20.60
2018-09-13T05:58:08.256Z,20.60
2018-09-13T06:00:36.716Z,20.60
2018-09-13T06:03:05.133Z,20.60
2018-09-13T06:05:33.553Z,20.60
2018-09-13T06:08:02.134Z,20.60
2018-09-13T06:10:31.282Z,20.60
2018-09-13T06:12:59.960Z,20.60
2018-09-13T06:15:28.423Z,20.60
2018-09-13T06:17:57.007Z,20.60
2018-09-13T06:20:25.592Z,20.60
2018-09-13T06:22:54.073Z,20.60
2018-09-13T06:25:22.503Z,20.60
2018-09-13T06:27:50.955Z,20.60
2018-09-13T06:30:19.448Z,20.60
2018-09-13T06:32:48.159Z,20.60
2018-09-13T06:35:16.711Z,20.60
2018-09-13T06:37:45.234Z,20.60
2018-09-13T06:40:13.716Z,20.60
2018-09-13T06:42:43.226Z,20.60
2018-09-13T06:45:12.206Z,20.60
2018-09-13T06:47:40.788Z,20.60
2018-09-13T06:50:10.004Z,20.60
2018-09-13T06:52:39.277Z,20.60
2018-09-13T06:55:08.012Z,20.60
2018-09-13T06:57:41.090Z,20.60
2018-09-13T07:00:10.823Z,20.60
2018-09-13T07:02:40.629Z,20.60
2018-09-13T07:05:09.245Z,20.60
2018-09-13T07:07:37.933Z,20.60
2018-09-13T07:10:06.397Z,20.60
2018-09-13T07:12:34.812Z,20.60
2018-09-13T07:15:03.396Z,20.60
2018-09-13T07:17:31.942Z,20.60
2018-09-13T07:20:00.633Z,20.60
2018-09-13T07:22:29.091Z,20.60
2018-09-13T07:24:57.558Z,20.60
2018-09-13T07:27:26.027Z,20.60
2018-09-13T07:29:54.525Z,20.60
2018-09-13T07:32:23.269Z,20.60
2018-09-13T07:34:51.678Z,20.60
2018-09-13T07:37:20.507Z,20.60
2018-09-13T07:39:49.093Z,20.60
2018-09-13T07:42:17.640Z,20.60
2018-09-13T07:44:46.132Z,20.60
2018-09-13T07:47:14.623Z,20.60
2018-09-13T07:49:43.564Z,20.60
2018-09-13T07:52:11.949Z,20.60
2018-09-13T07:54:40.413Z,20.60
2018-09-13T07:57:08.925Z,20.60
2018-09-13T07:59:37.674Z,20.60
2018-09-13T08:02:06.605Z,20.60
2018-09-13T08:04:35.021Z,20.60
2018-09-13T08:07:04.434Z,20.60
2018-09-13T08:09:32.853Z,20.60
2018-09-13T08:12:01.393Z,20.60
2018-09-13T08:14:29.793Z,20.60
2018-09-13T08:16:58.197Z,20.60
2018-09-13T08:19:26.745Z,20.60
2018-09-13T08:21:55.190Z,20.60
2018-09-13T08:24:23.607Z,20.60
2018-09-13T08:26:52.091Z,20.60
2018-09-13T08:29:20.629Z,20.60
2018-09-13T08:33:31.939Z,20.60
2018-09-13T08:36:00.825Z,20.50
2018-09-13T08:38:29.381Z,20.60
2018-09-13T08:40:57.934Z,20.50
2018-09-13T08:43:26.338Z,20.60
2018-09-13T08:45:54.810Z,20.60
2018-09-13T08:48:23.308Z,20.60
2018-09-13T08:50:54.363Z,20.50
2018-09-13T08:53:24.905Z,20.60
2018-09-13T08:55:54.702Z,20.60
2018-09-13T08:58:24.740Z,20.60
2018-09-13T09:00:55.144Z,20.60
2018-09-13T09:03:24.990Z,20.60
2018-09-13T09:05:53.833Z,20.60
2018-09-13T09:08:22.378Z,20.60
2018-09-13T09:10:50.880Z,20.60
2018-09-13T09:13:19.716Z,20.60
2018-09-13T09:15:49.058Z,20.60
2018-09-13T09:18:20.074Z,20.60
2018-09-13T09:20:50.344Z,20.60
2018-09-13T09:23:20.613Z,20.60
2018-09-13T09:25:50.999Z,20.60
2018-09-13T09:28:21.400Z,20.60
2018-09-13T09:30:52.641Z,20.60
2018-09-13T09:33:24.563Z,20.60
2018-09-13T09:35:54.405Z,20.60
2018-09-13T09:38:25.781Z,20.60
2018-09-13T09:40:56.735Z,20.60
2018-09-13T09:43:27.640Z,20.60
2018-09-13T09:45:57.308Z,20.60
2018-09-13T09:48:27.400Z,20.60
2018-09-13T09:50:57.907Z,20.60
2018-09-13T09:53:27.840Z,20.60
2018-09-13T09:55:57.873Z,20.60
2018-09-13T09:58:28.331Z,20.60
2018-09-13T10:01:04.250Z,20.60
2018-09-13T10:03:34.270Z,20.60
2018-09-13T10:06:04.616Z,20.60
2018-09-13T10:08:33.581Z,20.60
2018-09-13T10:11:02.165Z,20.50
2018-09-13T10:13:30.898Z,20.60
2018-09-13T10:16:05.100Z,20.60
2018-09-13T10:18:39.502Z,20.50
2018-09-13T10:21:14.176Z,20.60
2018-09-13T10:23:48.456Z,20.60
2018-09-13T10:26:22.399Z,20.60
2018-09-13T10:28:56.541Z,20.60
2018-09-13T10:31:31.421Z,20.60
2018-09-13T10:35:04.371Z,20.60
2018-09-13T10:37:38.342Z,20.60
2018-09-13T10:40:12.146Z,20.50
2018-09-13T10:42:47.299Z,20.50
2018-09-13T10:45:21.255Z,20.50
2018-09-13T10:47:56.928Z,20.50
2018-09-13T10:50:25.783Z,20.50
2018-09-13T10:53:59.466Z,20.50
2018-09-13T10:56:28.227Z,20.50
2018-09-13T10:58:56.682Z,20.50
2018-09-13T11:01:25.161Z,20.50
2018-09-13T11:03:53.621Z,20.50
2018-09-13T11:06:22.184Z,20.50
2018-09-13T11:08:51.116Z,20.50
2018-09-13T11:11:19.593Z,20.50
2018-09-13T11:14:54.106Z,20.50
2018-09-13T11:17:23.968Z,20.50
2018-09-13T11:19:52.494Z,20.50
2018-09-13T11:22:20.964Z,20.50
2018-09-13T11:24:49.453Z,20.50
2018-09-13T11:27:18.040Z,20.50
2018-09-13T11:29:46.753Z,20.50
2018-09-13T11:32:15.274Z,20.60
2018-09-13T11:34:44.660Z,20.60
2018-09-13T11:37:13.458Z,20.50
2018-09-13T11:39:42.014Z,20.60
2018-09-13T11:42:10.546Z,20.50
2018-09-13T11:44:39.231Z,20.60
2018-09-13T11:47:07.999Z,20.60
2018-09-13T11:49:36.553Z,20.50
2018-09-13T11:52:05.117Z,20.60
2018-09-13T11:54:33.756Z,20.50
2018-09-13T11:57:02.356Z,20.60
2018-09-13T11:59:30.809Z,20.50
2018-09-13T12:01:59.260Z,20.50
2018-09-13T12:04:27.653Z,20.60
2018-09-13T12:06:56.118Z,20.60
2018-09-13T12:09:24.777Z,20.50
2018-09-13T12:11:53.238Z,20.60
2018-09-13T12:14:21.673Z,20.60
2018-09-13T12:16:50.165Z,20.60
2018-09-13T12:19:18.701Z,20.50
2018-09-13T12:21:47.114Z,20.60
2018-09-13T12:24:15.576Z,20.60
2018-09-13T12:26:44.069Z,20.60
2018-09-13T12:29:12.620Z,20.60
2018-09-13T12:31:41.387Z,20.60
2018-09-13T12:34:12.733Z,20.60
2018-09-13T12:36:41.231Z,20.60
2018-09-13T12:39:11.253Z,20.60
2018-09-13T12:41:40.348Z,20.60
2018-09-13T12:44:09.414Z,20.60
2018-09-13T12:46:38.212Z,20.50
2018-09-13T12:49:06.674Z,20.60
2018-09-13T12:51:35.104Z,20.60
2018-09-13T12:54:03.830Z,20.50
2018-09-13T12:56:32.269Z,20.50
2018-09-13T12:59:00.844Z,20.60
2018-09-13T13:01:29.289Z,20.50
2018-09-13T13:03:57.804Z,20.60
2018-09-13T13:06:26.431Z,20.60
2018-09-13T13:08:55.120Z,20.60
2018-09-13T13:11:23.673Z,20.50
2018-09-13T13:13:52.353Z,20.50
2018-09-13T13:16:20.856Z,20.50
2018-09-13T13:18:49.280Z,20.60
2018-09-13T13:21:17.744Z,20.60
2018-09-13T13:23:46.522Z,20.50
2018-09-13T13:26:15.089Z,20.60
2018-09-13T13:28:43.732Z,20.60
2018-09-13T13:31:12.344Z,20.60
2018-09-13T13:33:41.944Z,20.50
2018-09-13T13:36:10.344Z,20.60
2018-09-13T13:38:38.969Z,20.50
2018-09-13T13:41:07.481Z,20.50
2018-09-13T13:43:35.945Z,20.50
2018-09-13T13:46:04.380Z,20.60
2018-09-13T13:48:32.824Z,20.50
2018-09-13T13:51:01.307Z,20.60
2018-09-13T13:53:29.736Z,20.50
2018-09-13T13:55:58.168Z,20.60
2018-09-13T13:58:26.769Z,20.50
2018-09-13T14:00:55.437Z,20.60
2018-09-13T14:03:23.858Z,20.60
2018-09-13T14:05:52.455Z,20.60
2018-09-13T14:08:21.030Z,20.60
2018-09-13T14:10:49.441Z,20.60
2018-09-13T14:13:17.853Z,20.60
2018-09-13T14:15:46.302Z,20.60
2018-09-13T14:18:14.749Z,20.60
2018-09-13T14:20:43.384Z,20.50
2018-09-13T14:23:12.114Z,20.50
2018-09-13T14:25:40.837Z,20.50
2018-09-13T14:28:09.412Z,20.60
2018-09-13T14:30:38.050Z,20.50
2018-09-13T14:33:06.516Z,20.50
2018-09-13T14:35:34.950Z,20.50
2018-09-13T14:38:03.400Z,20.50
2018-09-13T14:40:31.853Z,20.50
2018-09-13T14:43:00.444Z,20.60
2018-09-13T14:45:28.919Z,20.50
2018-09-13T14:47:57.880Z,20.50
2018-09-13T14:50:26.339Z,20.50
2018-09-13T14:52:54.804Z,20.50
2018-09-13T14:55:23.241Z,20.50
2018-09-13T14:57:51.655Z,20.50
2018-09-13T15:00:20.036Z,20.50
2018-09-13T15:02:48.532Z,20.50
2018-09-13T15:05:16.968Z,20.50
2018-09-13T15:07:45.384Z,20.50
2018-09-13T15:10:13.769Z,20.50
2018-09-13T15:12:42.797Z,20.60
2018-09-13T15:15:11.257Z,20.60
2018-09-13T15:17:40.683Z,20.50
2018-09-13T15:20:09.094Z,20.50
2018-09-13T15:22:37.606Z,20.50
2018-09-13T15:25:06.109Z,20.60
2018-09-13T15:27:34.550Z,20.50
2018-09-13T15:30:03.307Z,20.60
2018-09-13T15:32:31.805Z,20.50
2018-09-13T15:35:00.257Z,20.50
2018-09-13T15:37:28.690Z,20.60
2018-09-13T15:39:57.192Z,20.50
2018-09-13T15:42:25.602Z,20.50
2018-09-13T15:44:54.176Z,20.50
2018-09-13T15:47:22.596Z,20.50
2018-09-13T15:49:51.033Z,20.50
2018-09-13T15:52:19.469Z,20.50
2018-09-13T15:54:48.104Z,20.50
2018-09-13T15:57:16.654Z,20.50
2018-09-13T15:59:45.175Z,20.50
2018-09-13T16:02:13.720Z,20.60
2018-09-13T16:04:42.237Z,20.50
2018-09-13T16:07:10.743Z,20.60
2018-09-13T16:09:39.438Z,20.60
2018-09-13T16:12:07.960Z,20.50
2018-09-13T16:14:36.378Z,20.50
2018-09-13T16:17:04.820Z,20.50
2018-09-13T16:19:33.247Z,20.60
2018-09-13T16:22:01.684Z,20.50
2018-09-13T16:24:30.197Z,20.50
2018-09-13T16:26:58.660Z,20.60
2018-09-13T16:29:27.133Z,20.60
2018-09-13T16:31:55.597Z,20.60
2018-09-13T16:34:24.089Z,20.50
2018-09-13T16:36:59.043Z,20.60
2018-09-13T16:39:33.012Z,20.50
2018-09-13T16:42:06.960Z,20.50
2018-09-13T16:44:40.972Z,20.60
2018-09-13T16:47:15.298Z,20.60
2018-09-13T16:49:43.877Z,20.50
2018-09-13T16:52:12.368Z,20.50
2018-09-13T16:54:41.173Z,20.50
2018-09-13T16:57:09.659Z,20.50
2018-09-13T16:59:38.289Z,20.50
2018-09-13T17:02:06.779Z,20.60
2018-09-13T17:04:35.215Z,20.50
2018-09-13T17:07:03.918Z,20.50
2018-09-13T17:09:32.356Z,20.50
2018-09-13T17:12:00.777Z,20.60
2018-09-13T17:14:29.280Z,20.60
2018-09-13T17:16:57.772Z,20.60
2018-09-13T17:19:26.233Z,20.50
2018-09-13T17:21:54.913Z,20.50
2018-09-13T17:24:23.681Z,20.50
2018-09-13T17:26:52.223Z,20.60
2018-09-13T17:29:20.764Z,20.50
2018-09-13T17:31:49.219Z,20.50
2018-09-13T17:34:17.810Z,20.60
2018-09-13T17:36:46.644Z,20.50
2018-09-13T17:39:15.052Z,20.60
2018-09-13T17:41:43.998Z,20.50
2018-09-13T17:44:12.466Z,20.50
2018-09-13T17:46:41.900Z,20.50
2018-09-13T17:49:10.433Z,20.50
2018-09-13T17:51:38.953Z,20.50
2018-09-13T17:54:07.528Z,20.50
2018-09-13T17:56:36.149Z,20.50
2018-09-13T17:59:04.552Z,20.50
2018-09-13T18:01:33.059Z,20.50
2018-09-13T18:04:01.582Z,20.50
2018-09-13T18:06:30.041Z,20.50
2018-09-13T18:08:58.556Z,20.50
2018-09-13T18:11:27.118Z,20.50
2018-09-13T18:13:56.013Z,20.60
2018-09-13T18:16:24.548Z,20.50
2018-09-13T18:18:53.102Z,20.50
2018-09-13T18:21:21.484Z,20.50
2018-09-13T18:23:50.017Z,20.50
2018-09-13T18:26:18.457Z,20.50
2018-09-13T18:28:47.221Z,20.50
2018-09-13T18:31:15.721Z,20.50
2018-09-13T18:33:44.249Z,20.60
2018-09-13T18:36:12.785Z,20.50
2018-09-13T18:38:41.373Z,20.50
2018-09-13T18:41:09.753Z,20.60
2018-09-13T18:43:39.301Z,20.50
2018-09-13T18:46:07.857Z,20.50
2018-09-13T18:48:36.358Z,20.50
2018-09-13T18:51:04.912Z,20.50
2018-09-13T18:53:33.525Z,20.50
2018-09-13T18:56:01.997Z,20.50
2018-09-13T18:58:30.708Z,20.50
2018-09-13T19:00:59.116Z,20.50
2018-09-13T19:03:27.512Z,20.50
2018-09-13T19:05:55.917Z,20.50
2018-09-13T19:08:24.369Z,20.50
2018-09-13T19:10:52.858Z,20.50
2018-09-13T19:13:21.513Z,20.50
2018-09-13T19:15:50.145Z,20.50
2018-09-13T19:18:18.714Z,20.50
2018-09-13T19:20:47.165Z,20.50
2018-09-13T19:23:15.701Z,20.50
2018-09-13T19:25:44.117Z,20.50
2018-09-13T19:28:12.815Z,20.50
2018-09-13T19:30:41.389Z,20.50
2018-09-13T19:33:09.838Z,20.50
2018-09-13T19:35:38.448Z,20.50
2018-09-13T19:38:06.820Z,20.50
2018-09-13T19:40:35.223Z,20.50
2018-09-13T19:43:03.693Z,20.50
2018-09-13T19:45:32.289Z,20.50
2018-09-13T19:48:00.709Z,20.50
2018-09-13T19:50:29.195Z,20.50
2018-09-13T19:53:03.204Z,20.50
2018-09-13T19:55:31.629Z,20.50
2018-09-13T19:58:00.172Z,20.50
2018-09-13T20:00:28.573Z,20.50
2018-09-13T20:02:57.036Z,20.50
2018-09-13T20:05:25.629Z,20.50
2018-09-13T20:07:56.933Z,20.50
2018-09-13T20:10:28.579Z,20.50
2018-09-13T20:12:57.778Z,20.50
2018-09-13T20:15:28.966Z,20.60
2018-09-13T20:18:00.796Z,20.50
2018-09-13T20:20:32.656Z,20.60
2018-09-13T20:23:04.170Z,20.60
2018-09-13T20:25:38.030Z,20.60
2018-09-13T20:28:12.262Z,20.60
2018-09-13T20:30:44.492Z,20.70
2018-09-13T20:33:14.574Z,20.70
2018-09-13T20:35:44.694Z,20.70
2018-09-13T20:38:16.499Z,20.70
2018-09-13T20:40:48.310Z,20.80
2018-09-13T20:43:17.433Z,20.80
2018-09-13T20:45:48.560Z,20.80
2018-09-13T20:48:18.471Z,20.80
2018-09-13T20:50:48.593Z,20.80
2018-09-13T20:53:18.849Z,20.80
2018-09-13T20:55:49.284Z,20.80
2018-09-13T20:58:19.577Z,20.90
2018-09-13T21:00:51.905Z,20.90
2018-09-13T21:03:23.276Z,20.90
2018-09-13T21:05:55.034Z,20.90
2018-09-13T21:08:25.073Z,20.90
2018-09-13T21:10:53.950Z,20.90
2018-09-13T21:13:24.197Z,21.20
2018-09-13T21:15:54.579Z,21.10
2018-09-13T21:18:25.908Z,21.00
2018-09-13T21:20:56.061Z,21.00
2018-09-13T21:23:25.670Z,21.00
2018-09-13T21:25:55.731Z,21.00
2018-09-13T21:28:26.094Z,20.90
2018-09-13T21:30:56.204Z,20.90
2018-09-13T21:33:26.030Z,20.90
2018-09-13T21:35:55.808Z,20.90
2018-09-13T21:38:26.283Z,20.90
2018-09-13T21:40:56.972Z,20.80
2018-09-13T21:43:26.956Z,20.80
2018-09-13T21:45:58.552Z,20.80
2018-09-13T21:48:28.457Z,20.80
2018-09-13T21:50:58.621Z,20.80
2018-09-13T21:53:29.830Z,20.80
2018-09-13T21:55:59.939Z,20.80
2018-09-13T21:58:30.187Z,20.80
2018-09-13T22:01:00.070Z,20.80
2018-09-13T22:03:29.803Z,20.80
2018-09-13T22:06:01.428Z,20.80
2018-09-13T22:08:30.077Z,20.80
2018-09-13T22:10:59.738Z,20.80
2018-09-13T22:13:32.294Z,20.80
2018-09-13T22:16:03.306Z,20.80
2018-09-13T22:18:34.053Z,20.80
2018-09-13T22:21:04.394Z,20.70
2018-09-13T22:23:34.108Z,20.70
2018-09-13T22:26:04.451Z,20.80
2018-09-13T22:28:34.747Z,20.70
2018-09-13T22:31:04.985Z,20.70
2018-09-13T22:33:34.520Z,20.70
2018-09-13T22:36:04.805Z,20.70
2018-09-13T22:38:35.440Z,20.70
2018-09-13T22:41:06.791Z,20.70
2018-09-13T22:43:59.358Z,20.70
2018-09-13T22:46:29.354Z,20.70
2018-09-13T22:49:00.398Z,20.70
2018-09-13T22:51:30.753Z,20.70
2018-09-13T22:54:04.692Z,20.70
2018-09-13T22:56:35.532Z,20.70
2018-09-13T22:59:05.892Z,20.60
2018-09-13T23:01:36.082Z,20.70
2018-09-13T23:04:05.960Z,20.60
2018-09-13T23:06:36.328Z,20.60
2018-09-13T23:09:08.948Z,20.60
2018-09-13T23:11:39.521Z,20.60
2018-09-13T23:14:10.084Z,20.60
2018-09-13T23:16:40.397Z,20.60
2018-09-13T23:19:10.579Z,20.60
2018-09-13T23:21:40.501Z,20.60
2018-09-13T23:24:10.663Z,20.60
2018-09-13T23:26:40.993Z,20.60
2018-09-13T23:29:11.559Z,20.60
2018-09-13T23:31:41.493Z,20.60
2018-09-13T23:34:11.422Z,20.60
2018-09-13T23:36:43.686Z,20.60
2018-09-13T23:39:14.155Z,20.60
2018-09-13T23:41:44.899Z,20.60
2018-09-13T23:44:14.586Z,20.60
2018-09-13T23:46:44.469Z,20.70
2018-09-13T23:49:15.613Z,20.70
2018-09-13T23:51:46.242Z,20.60
2018-09-13T23:54:15.382Z,20.60
2018-09-13T23:56:44.077Z,20.60
2018-09-13T23:59:12.702Z,20.60
